createdAt,value
2018-08-23T00:01:30.529Z,12.47
2018-08-23T00:04:05.001Z,9.10
2018-08-23T00:06:34.527Z,10.37
2018-08-23T00:09:04.929Z,11.97
2018-08-23T00:11:38.514Z,10.57
2018-08-23T00:14:07.587Z,10.30
2018-08-23T00:16:44.361Z,13.30
2018-08-23T00:19:13.577Z,9.40
2018-08-23T00:21:44.630Z,8.20
2018-08-23T00:24:24.192Z,10.83
2018-08-23T00:26:55.573Z,10.40
2018-08-23T00:29:26.658Z,10.00
2018-08-23T00:32:05.102Z,9.20
2018-08-23T00:34:35.518Z,10.20
2018-08-23T00:37:05.198Z,8.53
2018-08-23T00:39:34.302Z,13.30
2018-08-23T00:42:05.093Z,11.10
2018-08-23T00:44:51.077Z,9.80
2018-08-23T00:47:20.662Z,8.83
2018-08-23T00:49:49.903Z,7.93
2018-08-23T00:52:21.313Z,10.57
2018-08-23T00:54:50.709Z,12.47
2018-08-23T00:57:19.791Z,8.77
2018-08-23T00:59:53.092Z,9.27
2018-08-23T01:02:22.475Z,9.93
2018-08-23T01:04:51.536Z,13.10
2018-08-23T01:07:22.408Z,8.97
2018-08-23T01:09:51.501Z,12.70
2018-08-23T01:12:20.827Z,10.07
2018-08-23T01:14:51.990Z,11.30
2018-08-23T01:17:21.090Z,8.13
2018-08-23T01:20:00.601Z,8.40
2018-08-23T01:22:29.851Z,10.47
2018-08-23T01:25:00.392Z,16.40
2018-08-23T01:27:35.192Z,11.20
2018-08-23T01:30:04.343Z,14.83
2018-08-23T01:32:33.969Z,8.20
2018-08-23T01:35:03.297Z,12.37
2018-08-23T01:37:36.381Z,9.27
2018-08-23T01:40:07.500Z,10.20
2018-08-23T01:42:37.959Z,9.57
2018-08-23T01:45:08.563Z,10.90
2018-08-23T01:47:53.868Z,10.23
2018-08-23T01:50:23.108Z,11.33
2018-08-23T01:52:53.513Z,12.57
2018-08-23T01:55:23.660Z,9.80
2018-08-23T01:57:52.977Z,8.93
2018-08-23T02:00:26.272Z,10.60
2018-08-23T02:02:55.990Z,10.20
2018-08-23T02:05:25.083Z,8.33
2018-08-23T02:07:54.305Z,10.43
2018-08-23T02:10:23.575Z,9.93
2018-08-23T02:12:55.173Z,11.23
2018-08-23T02:15:24.463Z,10.20
2018-08-23T02:17:55.561Z,7.70
2018-08-23T02:20:25.763Z,10.67
2018-08-23T02:22:55.392Z,8.77
2018-08-23T02:25:24.782Z,9.73
2018-08-23T02:28:02.220Z,10.87
2018-08-23T02:30:48.920Z,10.83
2018-08-23T02:33:18.429Z,15.50
2018-08-23T02:35:59.195Z,8.97
2018-08-23T02:38:29.519Z,12.70
2018-08-23T02:40:58.693Z,12.10
2018-08-23T02:43:27.787Z,13.80
2018-08-23T02:45:56.916Z,12.20
2018-08-23T02:48:26.219Z,11.37
2018-08-23T02:50:55.308Z,10.60
2018-08-23T02:53:33.305Z,15.33
2018-08-23T02:56:04.989Z,13.83
2018-08-23T02:58:37.580Z,10.90
2018-08-23T03:01:06.647Z,9.83
2018-08-23T03:03:35.740Z,15.00
2018-08-23T03:06:04.818Z,11.67
2018-08-23T03:08:42.522Z,10.57
2018-08-23T03:11:11.887Z,13.43
2018-08-23T03:13:43.423Z,12.10
2018-08-23T03:16:13.053Z,11.93
2018-08-23T03:18:42.708Z,9.40
2018-08-23T03:21:11.757Z,11.10
2018-08-23T03:23:44.872Z,10.97
2018-08-23T03:26:14.213Z,11.70
2018-08-23T03:28:43.284Z,12.47
2018-08-23T03:31:12.359Z,10.47
2018-08-23T03:33:41.433Z,11.87
2018-08-23T03:36:10.588Z,13.03
2018-08-23T03:38:39.829Z,10.27
2018-08-23T03:41:08.960Z,14.03
2018-08-23T03:43:38.164Z,15.70
2018-08-23T03:46:07.228Z,14.37
2018-08-23T03:48:36.396Z,12.80
2018-08-23T03:51:05.452Z,15.33
2018-08-23T03:53:47.276Z,14.70
2018-08-23T03:56:17.612Z,9.90
2018-08-23T03:58:46.728Z,17.30
2018-08-23T04:01:16.427Z,10.97
2018-08-23T04:03:45.544Z,12.70
2018-08-23T04:06:37.495Z,10.33
2018-08-23T04:09:08.957Z,14.30
2018-08-23T04:11:38.028Z,12.60
2018-08-23T04:14:07.088Z,9.97
2018-08-23T04:16:36.156Z,11.83
2018-08-23T04:19:05.294Z,12.23
2018-08-23T04:21:34.476Z,12.27
2018-08-23T04:24:03.677Z,15.00
2018-08-23T04:26:32.804Z,10.20
2018-08-23T04:29:01.901Z,11.10
2018-08-23T04:31:30.952Z,13.87
2018-08-23T04:34:04.172Z,13.30
2018-08-23T04:36:33.957Z,15.63
2018-08-23T04:39:05.966Z,11.80
2018-08-23T04:41:35.085Z,10.67
2018-08-23T04:44:11.117Z,10.90
2018-08-23T04:46:40.193Z,12.80
2018-08-23T04:49:09.373Z,22.73
2018-08-23T04:51:38.464Z,10.97
2018-08-23T04:54:07.564Z,12.47
2018-08-23T04:56:36.657Z,14.93
2018-08-23T04:59:05.937Z,14.63
2018-08-23T05:01:35.032Z,16.10
2018-08-23T05:04:04.207Z,15.63
2018-08-23T05:06:33.317Z,19.70
2018-08-23T05:09:02.404Z,11.87
2018-08-23T05:11:31.460Z,15.67
2018-08-23T05:14:00.606Z,13.33
2018-08-23T05:16:29.937Z,14.53
2018-08-23T05:18:59.045Z,12.33
2018-08-23T05:21:28.268Z,12.73
2018-08-23T05:24:16.426Z,11.30
2018-08-23T05:26:45.520Z,14.50
2018-08-23T05:29:14.692Z,13.07
2018-08-23T05:31:44.180Z,14.77
2018-08-23T05:34:13.341Z,17.10
2018-08-23T05:36:42.533Z,13.83
2018-08-23T05:39:11.601Z,14.50
2018-08-23T05:41:40.837Z,18.97
2018-08-23T05:44:15.600Z,13.30
2018-08-23T05:46:48.969Z,12.60
2018-08-23T05:49:18.375Z,14.57
2018-08-23T05:51:47.504Z,17.53
2018-08-23T05:54:16.608Z,19.00
2018-08-23T05:56:45.676Z,15.30
2018-08-23T05:59:18.384Z,14.97
2018-08-23T06:01:48.158Z,15.47
2018-08-23T06:04:18.276Z,17.27
2018-08-23T06:06:47.387Z,15.33
2018-08-23T06:09:16.775Z,15.73
2018-08-23T06:11:45.868Z,15.03
2018-08-23T06:14:14.975Z,17.60
2018-08-23T06:16:48.732Z,14.27
2018-08-23T06:19:18.014Z,13.10
2018-08-23T06:21:47.089Z,15.13
2018-08-23T06:24:16.205Z,13.93
2018-08-23T06:26:50.111Z,19.33
2018-08-23T06:29:23.413Z,15.90
2018-08-23T06:32:02.586Z,14.53
2018-08-23T06:34:36.536Z,19.40
2018-08-23T06:37:05.761Z,14.63
2018-08-23T06:39:34.912Z,23.23
2018-08-23T06:42:04.422Z,17.30
2018-08-23T06:44:37.880Z,15.40
2018-08-23T06:47:07.029Z,12.27
2018-08-23T06:49:36.140Z,15.57
2018-08-23T06:52:09.454Z,12.83
2018-08-23T06:54:38.936Z,15.53
2018-08-23T06:57:08.126Z,18.10
2018-08-23T06:59:37.919Z,21.57
2018-08-23T07:02:07.530Z,25.30
2018-08-23T07:04:36.908Z,20.30
2018-08-23T07:07:06.021Z,16.70
2018-08-23T07:09:40.679Z,17.63
2018-08-23T07:12:15.283Z,18.20
2018-08-23T07:14:46.180Z,16.33
2018-08-23T07:17:20.911Z,19.90
2018-08-23T07:19:50.799Z,17.00
2018-08-23T07:22:22.121Z,16.13
2018-08-23T07:24:52.652Z,16.80
2018-08-23T07:27:22.409Z,14.00
2018-08-23T07:29:55.695Z,17.67
2018-08-23T07:32:26.038Z,16.60
2018-08-23T07:35:01.571Z,15.57
2018-08-23T07:37:31.869Z,16.30
2018-08-23T07:40:06.579Z,19.23
2018-08-23T07:42:36.250Z,19.70
2018-08-23T07:45:06.044Z,23.33
2018-08-23T07:47:38.836Z,17.13
2018-08-23T07:50:08.515Z,22.10
2018-08-23T07:52:38.411Z,24.67
2018-08-23T07:55:07.761Z,22.43
2018-08-23T07:57:37.860Z,19.03
2018-08-23T08:00:42.595Z,21.00
2018-08-23T08:03:13.039Z,21.33
2018-08-23T08:05:43.545Z,24.00
2018-08-23T08:08:13.552Z,20.10
2018-08-23T08:10:46.224Z,27.60
2018-08-23T08:13:15.344Z,27.80
2018-08-23T08:15:44.465Z,29.63
2018-08-23T08:18:23.044Z,26.40
2018-08-23T08:21:04.513Z,28.57
2018-08-23T08:23:33.845Z,25.77
2018-08-23T08:26:03.001Z,26.63
2018-08-23T08:28:32.103Z,32.10
2018-08-23T08:31:02.161Z,36.73
2018-08-23T08:33:34.215Z,34.63
2018-08-23T08:36:04.425Z,31.67
2018-08-23T08:38:34.161Z,27.53
2018-08-23T08:41:03.257Z,27.30
2018-08-23T08:43:32.449Z,26.20
2018-08-23T08:46:01.634Z,27.73
2018-08-23T08:48:31.873Z,29.37
2018-08-23T08:51:32.403Z,30.13
2018-08-23T08:54:02.834Z,34.83
2018-08-23T08:56:36.407Z,29.90
2018-08-23T08:59:05.498Z,28.73
2018-08-23T09:01:34.680Z,33.77
2018-08-23T09:04:04.225Z,32.40
2018-08-23T09:06:45.993Z,29.07
2018-08-23T09:09:30.733Z,27.13
2018-08-23T09:12:02.816Z,24.03
2018-08-23T09:14:32.157Z,30.00
2018-08-23T09:17:15.829Z,29.53
2018-08-23T09:19:57.298Z,36.00
2018-08-23T09:22:26.893Z,28.27
2018-08-23T09:24:56.518Z,30.20
2018-08-23T09:27:25.743Z,28.57
2018-08-23T09:29:55.001Z,29.70
2018-08-23T09:32:27.593Z,32.43
2018-08-23T09:34:57.933Z,33.10
2018-08-23T09:37:28.045Z,30.37
2018-08-23T09:39:57.483Z,23.93
2018-08-23T09:42:31.334Z,21.77
2018-08-23T09:45:07.207Z,34.20
2018-08-23T09:47:36.489Z,21.63
2018-08-23T09:50:05.923Z,22.83
2018-08-23T09:52:39.249Z,21.47
2018-08-23T09:55:09.617Z,21.40
2018-08-23T09:57:38.988Z,20.57
2018-08-23T10:00:12.673Z,17.90
2018-08-23T10:02:47.505Z,24.40
2018-08-23T10:05:22.236Z,21.80
2018-08-23T10:07:57.749Z,19.93
2018-08-23T10:10:32.254Z,20.10
2018-08-23T10:13:06.877Z,17.47
2018-08-23T10:15:41.879Z,18.60
2018-08-23T10:18:16.560Z,18.00
2018-08-23T10:20:51.015Z,15.33
2018-08-23T10:23:24.155Z,21.83
2018-08-23T10:25:54.329Z,17.63
2018-08-23T10:28:24.758Z,16.07
2018-08-23T10:30:54.253Z,14.50
2018-08-23T10:33:23.399Z,15.03
2018-08-23T10:35:53.873Z,16.30
2018-08-23T10:38:24.766Z,14.80
2018-08-23T10:40:58.145Z,11.50
2018-08-23T10:43:32.973Z,10.77
2018-08-23T10:46:03.068Z,13.10
2018-08-23T10:48:32.265Z,13.50
2018-08-23T10:51:01.515Z,9.70
2018-08-23T10:53:30.568Z,10.97
2018-08-23T10:55:59.649Z,12.03
2018-08-23T10:58:29.125Z,14.70
2018-08-23T11:00:58.383Z,10.97
2018-08-23T11:03:27.432Z,17.10
2018-08-23T11:05:56.615Z,10.10
2018-08-23T11:08:31.041Z,11.93
2018-08-23T11:11:05.844Z,11.43
2018-08-23T11:13:40.639Z,12.63
2018-08-23T11:16:15.160Z,11.17
2018-08-23T11:18:49.791Z,21.23
2018-08-23T11:21:19.264Z,18.33
2018-08-23T11:23:48.943Z,12.00
2018-08-23T11:26:25.941Z,16.67
2018-08-23T11:28:55.200Z,12.00
2018-08-23T11:32:47.401Z,11.57
2018-08-23T11:35:16.686Z,15.00
2018-08-23T11:37:45.756Z,11.17
2018-08-23T11:40:15.141Z,14.90
2018-08-23T11:42:44.492Z,12.90
2018-08-23T11:45:13.941Z,11.77
2018-08-23T11:47:43.212Z,15.57
2018-08-23T11:50:12.605Z,15.00
2018-08-23T11:52:41.801Z,9.47
2018-08-23T11:55:10.953Z,10.10
2018-08-23T11:57:40.152Z,13.97
2018-08-23T12:00:09.367Z,11.23
2018-08-23T12:02:42.267Z,11.90
2018-08-23T12:05:13.340Z,12.37
2018-08-23T12:07:49.393Z,12.20
2018-08-23T12:10:20.047Z,11.70
2018-08-23T12:12:50.713Z,9.67
2018-08-23T12:15:27.179Z,13.60
2018-08-23T12:17:57.026Z,13.70
2018-08-23T12:20:26.201Z,8.20
2018-08-23T12:22:55.239Z,12.10
2018-08-23T12:25:24.409Z,10.10
2018-08-23T12:28:01.258Z,6.60
2018-08-23T12:30:31.692Z,9.00
2018-08-23T12:33:07.534Z,9.83
2018-08-23T12:35:36.885Z,6.40
2018-08-23T12:38:16.805Z,9.63
2018-08-23T12:40:51.368Z,9.67
2018-08-23T12:43:21.699Z,16.17
2018-08-23T12:45:50.938Z,8.53
2018-08-23T12:48:20.232Z,9.23
2018-08-23T12:50:49.392Z,6.73
2018-08-23T12:53:18.567Z,13.13
2018-08-23T12:55:47.622Z,5.37
2018-08-23T12:58:16.811Z,7.50
2018-08-23T13:00:45.940Z,5.57
2018-08-23T13:03:15.089Z,7.90
2018-08-23T13:05:44.257Z,6.00
2018-08-23T13:08:14.060Z,11.70
2018-08-23T13:10:43.276Z,7.33
2018-08-23T13:13:12.524Z,6.00
2018-08-23T13:15:41.731Z,13.47
2018-08-23T13:18:11.165Z,5.50
2018-08-23T13:20:40.333Z,10.80
2018-08-23T13:23:09.428Z,7.63
2018-08-23T13:25:42.973Z,6.90
2018-08-23T13:28:12.108Z,5.17
2018-08-23T13:30:41.404Z,5.30
2018-08-23T13:33:10.463Z,7.40
2018-08-23T13:35:39.705Z,4.97
2018-08-23T13:38:08.800Z,5.60
2018-08-23T13:40:37.875Z,5.30
2018-08-23T13:43:07.151Z,7.43
2018-08-23T13:45:36.358Z,4.23
2018-08-23T13:48:05.645Z,4.53
2018-08-23T13:50:35.265Z,5.20
2018-08-23T13:53:04.394Z,5.80
2018-08-23T13:55:33.478Z,5.50
2018-08-23T13:58:02.752Z,7.23
2018-08-23T14:00:39.218Z,7.57
2018-08-23T14:03:09.203Z,6.70
2018-08-23T14:05:39.504Z,6.23
2018-08-23T14:08:08.812Z,3.90
2018-08-23T14:10:38.524Z,5.07
2018-08-23T14:13:08.124Z,10.40
2018-08-23T14:15:43.785Z,6.30
2018-08-23T14:18:14.157Z,8.63
2018-08-23T14:20:44.947Z,6.10
2018-08-23T14:23:15.293Z,5.70
2018-08-23T14:25:45.587Z,4.93
2018-08-23T14:28:14.786Z,6.60
2018-08-23T14:30:44.784Z,6.83
2018-08-23T14:33:13.965Z,7.00
2018-08-23T14:35:43.224Z,5.70
2018-08-23T14:38:12.277Z,6.33
2018-08-23T14:40:41.395Z,12.20
2018-08-23T14:43:10.774Z,6.00
2018-08-23T14:45:39.843Z,6.87
2018-08-23T14:48:14.486Z,5.50
2018-08-23T14:50:43.785Z,6.97
2018-08-23T14:53:17.085Z,6.17
2018-08-23T14:55:51.980Z,9.47
2018-08-23T14:58:21.824Z,8.40
2018-08-23T15:00:50.975Z,7.90
2018-08-23T15:03:20.067Z,6.67
2018-08-23T15:05:49.393Z,6.33
2018-08-23T15:08:18.724Z,7.47
2018-08-23T15:10:48.047Z,8.17
2018-08-23T15:13:17.424Z,9.80
2018-08-23T15:15:49.641Z,7.70
2018-08-23T15:18:20.940Z,7.00
2018-08-23T15:20:51.218Z,9.93
2018-08-23T15:23:20.255Z,6.40
2018-08-23T15:25:49.401Z,5.87
2018-08-23T15:28:18.599Z,6.57
2018-08-23T15:30:47.754Z,5.77
2018-08-23T15:33:18.233Z,10.00
2018-08-23T15:35:47.575Z,7.67
2018-08-23T15:38:16.669Z,7.03
2018-08-23T15:40:45.801Z,8.30
2018-08-23T15:43:14.960Z,9.20
2018-08-23T15:45:44.290Z,7.80
2018-08-23T15:48:13.527Z,7.07
2018-08-23T15:50:42.751Z,7.97
2018-08-23T15:53:12.975Z,7.10
2018-08-23T15:55:42.124Z,8.03
2018-08-23T15:58:11.254Z,7.43
2018-08-23T16:00:41.403Z,11.07
2018-08-23T16:03:11.838Z,6.87
2018-08-23T16:05:41.946Z,6.70
2018-08-23T16:08:11.848Z,8.60
2018-08-23T16:10:40.923Z,8.90
2018-08-23T16:13:10.039Z,6.80
2018-08-23T16:15:39.097Z,6.53
2018-08-23T16:18:13.557Z,7.40
2018-08-23T16:20:53.649Z,8.43
2018-08-23T16:23:22.903Z,6.03
2018-08-23T16:25:52.099Z,6.27
2018-08-23T16:28:21.221Z,8.10
2018-08-23T16:30:50.317Z,6.50
2018-08-23T16:33:19.407Z,6.50
2018-08-23T16:35:48.735Z,7.30
2018-08-23T16:38:17.947Z,5.50
2018-08-23T16:40:47.289Z,9.50
2018-08-23T16:43:16.508Z,6.60
2018-08-23T16:45:45.624Z,8.00
2018-08-23T16:48:14.720Z,6.83
2018-08-23T16:50:43.970Z,7.10
2018-08-23T16:53:13.149Z,5.83
2018-08-23T16:55:42.312Z,8.60
2018-08-23T16:58:12.592Z,4.80
2018-08-23T17:00:41.715Z,5.80
2018-08-23T17:03:11.393Z,6.23
2018-08-23T17:05:40.539Z,5.10
2018-08-23T17:08:09.691Z,4.30
2018-08-23T17:10:38.937Z,4.23
2018-08-23T17:13:13.092Z,9.73
2018-08-23T17:15:47.812Z,10.30
2018-08-23T17:18:17.129Z,6.20
2018-08-23T17:20:46.153Z,3.90
2018-08-23T17:23:15.355Z,7.00
2018-08-23T17:25:44.414Z,6.30
2018-08-23T17:28:13.606Z,5.40
2018-08-23T17:30:42.947Z,7.03
2018-08-23T17:33:11.992Z,6.93
2018-08-23T17:35:41.120Z,5.97
2018-08-23T17:38:10.241Z,4.13
2018-08-23T17:40:39.308Z,4.50
2018-08-23T17:43:08.404Z,8.33
2018-08-23T17:45:37.530Z,8.23
2018-08-23T17:48:06.694Z,4.90
2018-08-23T17:50:35.920Z,4.10
2018-08-23T17:53:05.424Z,5.23
2018-08-23T17:55:34.586Z,6.57
2018-08-23T17:58:03.677Z,4.33
2018-08-23T18:00:33.059Z,4.43
2018-08-23T18:03:02.217Z,5.23
2018-08-23T18:05:31.524Z,10.00
2018-08-23T18:08:00.620Z,8.10
2018-08-23T18:10:29.736Z,4.60
2018-08-23T18:12:58.828Z,13.83
2018-08-23T18:22:34.090Z,5.07
2018-08-23T18:25:03.175Z,6.13
2018-08-23T18:27:32.280Z,5.73
2018-08-23T18:30:01.392Z,17.90
2018-08-23T18:32:30.690Z,7.13
2018-08-23T18:34:59.683Z,8.20
2018-08-23T18:37:28.944Z,6.30
2018-08-23T18:39:57.997Z,7.77
2018-08-23T18:42:27.153Z,5.33
2018-08-23T18:44:56.265Z,4.63
2018-08-23T18:47:25.521Z,5.13
2018-08-23T18:49:54.590Z,4.47
2018-08-23T18:52:23.736Z,5.00
2018-08-23T18:54:53.040Z,5.60
2018-08-23T18:57:22.212Z,5.43
2018-08-23T18:59:51.520Z,5.23
2018-08-23T19:02:22.754Z,4.40
2018-08-23T19:04:52.220Z,5.73
2018-08-23T19:07:26.832Z,13.43
2018-08-23T19:09:59.445Z,6.20
2018-08-23T19:12:29.634Z,7.17
2018-08-23T19:14:58.718Z,9.10
2018-08-23T19:17:38.075Z,5.80
2018-08-23T19:20:08.211Z,12.77
2018-08-23T19:22:37.664Z,16.47
2018-08-23T19:25:08.224Z,8.73
2018-08-23T19:27:37.617Z,6.03
2018-08-23T19:30:07.766Z,6.30
2018-08-23T19:32:36.887Z,14.43
2018-08-23T19:35:06.053Z,19.83
2018-08-23T19:37:35.150Z,9.60
2018-08-23T19:40:04.302Z,4.57
2018-08-23T19:42:33.567Z,8.60
2018-08-23T19:45:02.976Z,6.20
2018-08-23T19:47:37.534Z,4.33
2018-08-23T19:50:08.478Z,5.20
2018-08-23T19:52:37.612Z,7.20
2018-08-23T19:55:08.392Z,6.60
2018-08-23T19:57:37.726Z,9.17
2018-08-23T20:00:08.729Z,7.50
2018-08-23T20:02:38.078Z,11.50
2018-08-23T20:05:07.289Z,5.80
2018-08-23T20:07:36.385Z,5.83
2018-08-23T20:10:05.604Z,5.83
2018-08-23T20:12:34.819Z,5.73
2018-08-23T20:15:03.999Z,10.03
2018-08-23T20:17:33.172Z,5.80
2018-08-23T20:20:02.402Z,9.60
2018-08-23T20:22:31.594Z,6.73
2018-08-23T20:25:01.007Z,7.70
2018-08-23T20:27:30.323Z,5.90
2018-08-23T20:29:59.637Z,5.20
2018-08-23T20:32:29.276Z,5.60
2018-08-23T20:34:58.446Z,8.67
2018-08-23T20:37:27.700Z,7.90
2018-08-23T20:39:57.160Z,8.50
2018-08-23T20:42:26.846Z,7.93
2018-08-23T20:44:56.050Z,7.73
2018-08-23T20:47:25.229Z,6.03
2018-08-23T20:49:54.456Z,7.63
2018-08-23T20:52:23.702Z,8.63
2018-08-23T20:54:52.897Z,10.93
2018-08-23T20:57:22.035Z,7.40
2018-08-23T20:59:51.175Z,9.10
2018-08-23T21:02:20.385Z,11.70
2018-08-23T21:04:49.537Z,10.10
2018-08-23T21:07:18.695Z,6.23
2018-08-23T21:09:47.865Z,7.20
2018-08-23T21:12:16.964Z,7.10
2018-08-23T21:14:46.077Z,7.30
2018-08-23T21:17:15.175Z,9.23
2018-08-23T21:19:44.446Z,11.23
2018-08-23T21:22:13.524Z,6.43
2018-08-23T21:24:42.633Z,8.67
2018-08-23T21:27:11.749Z,8.60
2018-08-23T21:29:40.796Z,9.57
2018-08-23T21:32:09.879Z,8.37
2018-08-23T21:34:38.981Z,7.70
2018-08-23T21:37:08.047Z,9.63
2018-08-23T21:39:37.213Z,7.10
2018-08-23T21:42:06.455Z,11.10
2018-08-23T21:44:36.395Z,7.57
2018-08-23T21:47:06.449Z,10.73
2018-08-23T21:49:35.606Z,11.30
2018-08-23T21:52:04.741Z,7.70
2018-08-23T21:54:33.831Z,9.87
2018-08-23T21:57:02.932Z,8.10
2018-08-23T21:59:32.083Z,8.80
2018-08-23T22:02:06.641Z,9.93
2018-08-23T22:04:41.089Z,7.90
2018-08-23T22:07:10.561Z,10.93
2018-08-23T22:09:39.978Z,9.77
2018-08-23T22:12:09.144Z,10.20
2018-08-23T22:14:38.381Z,8.90
2018-08-23T22:17:08.378Z,11.23
2018-08-23T22:19:37.652Z,7.80
2018-08-23T22:22:06.961Z,10.60
2018-08-23T22:24:36.164Z,17.20
2018-08-23T22:27:06.005Z,11.03
2018-08-23T22:29:36.292Z,9.50
2018-08-23T22:32:05.901Z,9.03
2018-08-23T22:34:35.401Z,8.20
2018-08-23T22:37:04.788Z,10.03
2018-08-23T22:39:34.082Z,6.87
2018-08-23T22:42:03.333Z,12.30
2018-08-23T22:44:32.528Z,8.77
2018-08-23T22:47:01.701Z,11.10
2018-08-23T22:49:30.970Z,9.43
2018-08-23T22:52:00.289Z,9.13
2018-08-23T22:54:29.472Z,10.60
2018-08-23T22:56:59.013Z,9.90
2018-08-23T22:59:28.175Z,9.93
2018-08-23T23:01:58.218Z,13.67
2018-08-23T23:04:28.592Z,8.70
2018-08-23T23:06:59.156Z,10.47
2018-08-23T23:09:28.375Z,8.70
2018-08-23T23:11:57.644Z,9.67
2018-08-23T23:14:27.724Z,8.60
2018-08-23T23:16:57.135Z,9.10
2018-08-23T23:19:26.482Z,15.10
2018-08-23T23:21:55.737Z,12.07
2018-08-23T23:24:30.456Z,10.17
2018-08-23T23:27:00.504Z,10.90
2018-08-23T23:29:30.275Z,9.70
2018-08-23T23:31:59.814Z,11.20
2018-08-23T23:34:29.180Z,16.33
2018-08-23T23:36:58.801Z,11.03
2018-08-23T23:39:28.040Z,11.53
2018-08-23T23:41:57.489Z,9.73
2018-08-23T23:44:26.733Z,10.60
2018-08-23T23:46:55.991Z,10.63
2018-08-23T23:49:25.318Z,9.53
2018-08-23T23:51:55.236Z,8.93
2018-08-23T23:54:24.869Z,19.83
2018-08-23T23:56:54.155Z,9.50
2018-08-23T23:59:23.815Z,10.90
